createdAt,value
2023-05-01T00:01:24.684Z,15.60
2023-05-01T00:06:19.979Z,15.52
2023-05-01T00:08:47.724Z,15.85
2023-05-01T00:11:15.714Z,15.91
2023-05-01T00:13:43.318Z,15.83
2023-05-01T00:16:12.496Z,15.54
2023-05-01T00:18:40.319Z,15.60
2023-05-01T00:21:08.029Z,15.77
2023-05-01T00:23:35.632Z,15.25
2023-05-01T00:26:03.368Z,15.67
2023-05-01T00:28:31.349Z,15.43
2023-05-01T00:30:59.030Z,15.65
2023-05-01T00:33:28.035Z,15.82
2023-05-01T00:35:56.111Z,15.56
2023-05-01T00:38:24.306Z,15.69
2023-05-01T00:40:51.962Z,14.89
2023-05-01T00:43:19.643Z,15.27
2023-05-01T00:45:47.405Z,15.18
2023-05-01T00:48:15.176Z,15.22
2023-05-01T00:50:44.412Z,15.21
2023-05-01T00:53:12.309Z,15.38
2023-05-01T00:55:40.048Z,15.13
2023-05-01T00:58:07.722Z,15.33
2023-05-01T01:00:35.386Z,15.27
2023-05-01T01:03:04.536Z,15.31
2023-05-01T01:05:32.579Z,15.37
2023-05-01T01:08:05.066Z,15.16
2023-05-01T01:10:34.907Z,15.06
2023-05-01T01:13:04.365Z,15.07
2023-05-01T01:15:34.149Z,15.07
2023-05-01T01:18:05.207Z,14.90
2023-05-01T01:20:33.446Z,15.02
2023-05-01T01:23:05.711Z,14.02
2023-05-01T01:25:51.174Z,14.97
2023-05-01T01:28:24.007Z,14.84
2023-05-01T01:30:58.249Z,14.84
2023-05-01T01:33:41.052Z,14.62
2023-05-01T01:36:09.317Z,14.60
2023-05-01T01:38:37.628Z,14.63
2023-05-01T01:41:08.516Z,14.61
2023-05-01T01:43:38.388Z,14.88
2023-05-01T01:46:06.870Z,14.48
2023-05-01T01:48:35.103Z,14.11
2023-05-01T01:51:04.937Z,13.91
2023-05-01T01:53:32.616Z,14.33
2023-05-01T01:56:03.046Z,14.36
2023-05-01T01:58:31.503Z,13.62
2023-05-01T02:00:59.231Z,14.43
2023-05-01T02:03:27.025Z,14.47
2023-05-01T02:05:55.040Z,14.14
2023-05-01T02:08:24.029Z,13.68
2023-05-01T02:10:51.764Z,14.19
2023-05-01T02:13:19.898Z,14.50
2023-05-01T02:15:49.555Z,13.63
2023-05-01T02:18:17.250Z,14.04
2023-05-01T02:20:45.351Z,14.15
2023-05-01T02:23:13.048Z,14.15
2023-05-01T02:25:42.029Z,14.35
2023-05-01T02:28:10.398Z,13.71
2023-05-01T02:30:39.024Z,12.90
2023-05-01T02:33:07.461Z,13.82
2023-05-01T02:35:39.699Z,14.12
2023-05-01T02:38:07.478Z,14.06
2023-05-01T02:40:35.150Z,14.23
2023-05-01T02:43:04.314Z,14.13
2023-05-01T02:45:32.015Z,13.75
2023-05-01T02:48:00.468Z,14.23
2023-05-01T02:50:28.189Z,13.93
2023-05-01T02:52:56.092Z,14.09
2023-05-01T02:55:37.183Z,13.30
2023-05-01T02:58:06.271Z,14.00
2023-05-01T03:00:35.178Z,14.10
2023-05-01T03:03:02.851Z,13.79
2023-05-01T03:05:30.576Z,13.32
2023-05-01T03:07:58.262Z,13.37
2023-05-01T03:10:25.896Z,14.03
2023-05-01T03:12:53.552Z,13.90
2023-05-01T03:15:22.585Z,14.02
2023-05-01T03:17:50.407Z,13.88
2023-05-01T03:20:18.124Z,13.66
2023-05-01T03:22:45.911Z,13.99
2023-05-01T03:25:14.082Z,14.01
2023-05-01T03:27:41.782Z,13.38
2023-05-01T03:30:11.179Z,12.98
2023-05-01T03:32:43.303Z,13.80
2023-05-01T03:35:19.097Z,14.02
2023-05-01T03:37:46.906Z,14.15
2023-05-01T03:40:23.720Z,14.36
2023-05-01T03:43:09.905Z,14.32
2023-05-01T03:45:38.026Z,14.36
2023-05-01T03:48:07.684Z,14.40
2023-05-01T03:50:35.421Z,13.87
2023-05-01T03:53:03.098Z,14.69
2023-05-01T03:55:30.823Z,13.97
2023-05-01T03:57:58.681Z,13.75
2023-05-01T04:00:26.349Z,14.21
2023-05-01T04:02:54.191Z,14.35
2023-05-01T04:05:26.483Z,14.13
2023-05-01T04:07:59.696Z,13.56
2023-05-01T04:10:27.424Z,14.54
2023-05-01T04:13:01.923Z,13.55
2023-05-01T04:15:29.560Z,13.27
2023-05-01T04:17:57.726Z,13.86
2023-05-01T04:20:26.928Z,14.25
2023-05-01T04:22:55.434Z,14.22
2023-05-01T04:25:23.136Z,13.56
2023-05-01T04:27:53.859Z,14.91
2023-05-01T04:30:21.588Z,13.60
2023-05-01T04:32:49.429Z,12.71
2023-05-01T04:35:17.135Z,13.22
2023-05-01T04:37:47.196Z,11.93
2023-05-01T04:40:15.112Z,11.91
2023-05-01T04:42:43.831Z,13.29
2023-05-01T04:45:14.719Z,12.17
2023-05-01T04:47:42.528Z,11.81
2023-05-01T04:50:10.808Z,13.20
2023-05-01T04:52:38.586Z,11.73
2023-05-01T04:55:09.208Z,11.70
2023-05-01T04:57:42.358Z,12.22
2023-05-01T05:00:10.388Z,12.51
2023-05-01T05:02:47.214Z,13.07
2023-05-01T05:05:16.327Z,14.35
2023-05-01T05:07:44.029Z,14.45
2023-05-01T05:10:28.265Z,13.70
2023-05-01T05:13:16.698Z,12.88
2023-05-01T05:15:45.684Z,14.23
2023-05-01T05:18:13.533Z,13.05
2023-05-01T05:20:41.272Z,11.87
2023-05-01T05:23:09.515Z,13.52
2023-05-01T05:25:38.668Z,12.74
2023-05-01T05:28:06.297Z,11.85
2023-05-01T05:30:34.083Z,12.71
2023-05-01T05:33:05.296Z,13.17
2023-05-01T05:35:33.040Z,13.74
2023-05-01T05:38:00.829Z,14.41
2023-05-01T05:40:29.703Z,16.35
2023-05-01T05:43:00.399Z,15.63
2023-05-01T05:45:30.153Z,14.29
2023-05-01T05:47:58.729Z,14.81
2023-05-01T05:50:27.745Z,14.12
2023-05-01T05:52:55.542Z,15.38
2023-05-01T05:55:23.780Z,15.24
2023-05-01T05:58:03.355Z,15.71
2023-05-01T06:00:31.881Z,14.41
2023-05-01T06:03:03.835Z,16.29
2023-05-01T06:05:33.874Z,15.75
2023-05-01T06:08:01.586Z,15.63
2023-05-01T06:10:29.231Z,15.02
2023-05-01T06:13:04.141Z,15.74
2023-05-01T06:15:45.262Z,15.34
2023-05-01T06:18:13.232Z,16.00
2023-05-01T06:20:40.952Z,15.06
2023-05-01T06:23:09.604Z,16.37
2023-05-01T06:25:51.664Z,16.60
2023-05-01T06:28:19.388Z,16.29
2023-05-01T06:30:48.785Z,16.60
2023-05-01T06:33:18.264Z,15.12
2023-05-01T06:35:52.117Z,15.09
2023-05-01T06:38:20.172Z,16.25
2023-05-01T06:40:49.668Z,17.84
2023-05-01T06:43:17.333Z,18.59
2023-05-01T06:45:46.440Z,20.09
2023-05-01T06:48:15.599Z,16.00
2023-05-01T06:50:43.246Z,15.89
2023-05-01T06:53:10.922Z,17.30
2023-05-01T06:55:38.702Z,16.75
2023-05-01T06:58:12.562Z,17.32
2023-05-01T07:00:50.044Z,17.29
2023-05-01T07:03:19.282Z,18.00
2023-05-01T07:05:47.070Z,19.50
2023-05-01T07:08:14.686Z,19.48
2023-05-01T07:10:42.560Z,20.53
2023-05-01T07:13:10.325Z,19.53
2023-05-01T07:15:38.051Z,20.00
2023-05-01T07:18:06.790Z,18.12
2023-05-01T07:20:35.884Z,17.48
2023-05-01T07:23:05.308Z,17.76
2023-05-01T07:25:34.246Z,17.92
2023-05-01T07:28:04.442Z,18.86
2023-05-01T07:30:33.038Z,19.77
2023-05-01T07:33:00.884Z,18.87
2023-05-01T07:35:28.711Z,17.31
2023-05-01T07:37:57.734Z,18.81
2023-05-01T07:40:25.410Z,19.36
2023-05-01T07:42:54.592Z,18.03
2023-05-01T07:45:22.471Z,19.00
2023-05-01T07:47:50.259Z,18.59
2023-05-01T07:50:18.113Z,22.11
2023-05-01T07:52:46.543Z,19.65
2023-05-01T07:55:15.828Z,19.03
2023-05-01T07:57:43.471Z,18.49
2023-05-01T08:00:11.815Z,20.00
2023-05-01T08:02:42.386Z,19.42
2023-05-01T08:05:12.228Z,18.99
2023-05-01T08:07:39.867Z,17.69
2023-05-01T08:10:08.075Z,18.73
2023-05-01T08:12:37.092Z,19.34
2023-05-01T08:15:05.223Z,19.02
2023-05-01T08:17:32.874Z,17.95
2023-05-01T08:20:01.406Z,19.19
2023-05-01T08:22:29.091Z,19.75
2023-05-01T08:24:56.846Z,20.95
2023-05-01T08:27:24.472Z,19.80
2023-05-01T08:29:53.826Z,21.55
2023-05-01T08:32:21.548Z,23.24
2023-05-01T08:34:49.228Z,23.28
2023-05-01T08:37:18.862Z,21.26
2023-05-01T08:39:46.550Z,21.17
2023-05-01T08:42:14.631Z,21.49
2023-05-01T08:44:42.277Z,21.65
2023-05-01T08:47:14.022Z,24.75
2023-05-01T08:49:42.244Z,23.66
2023-05-01T08:52:10.120Z,22.32
2023-05-01T08:54:38.968Z,22.06
2023-05-01T08:57:09.008Z,22.97
2023-05-01T08:59:38.360Z,21.51
2023-05-01T09:02:06.449Z,21.23
2023-05-01T09:04:35.952Z,22.40
2023-05-01T09:07:03.625Z,22.31
2023-05-01T09:09:31.629Z,20.78
2023-05-01T09:12:01.221Z,23.64
2023-05-01T09:14:29.789Z,21.43
2023-05-01T09:16:57.473Z,21.67
2023-05-01T09:19:25.728Z,21.07
2023-05-01T09:21:55.732Z,22.36
2023-05-01T09:24:24.217Z,22.63
2023-05-01T09:26:53.689Z,21.96
2023-05-01T09:29:39.822Z,20.95
2023-05-01T09:32:17.547Z,20.23
2023-05-01T09:34:45.614Z,19.22
2023-05-01T09:37:16.366Z,21.33
2023-05-01T09:39:44.017Z,23.36
2023-05-01T09:42:11.769Z,21.80
2023-05-01T09:44:43.136Z,21.88
2023-05-01T09:47:10.859Z,23.16
2023-05-01T09:49:49.316Z,24.31
2023-05-01T09:52:18.382Z,23.45
2023-05-01T09:54:46.567Z,22.55
2023-05-01T09:57:14.242Z,23.47
2023-05-01T09:59:41.895Z,22.30
2023-05-01T10:02:09.770Z,23.86
2023-05-01T10:04:37.396Z,21.37
2023-05-01T10:07:14.676Z,23.45
2023-05-01T10:09:43.694Z,22.45
2023-05-01T10:12:11.388Z,22.45
2023-05-01T10:14:50.637Z,23.54
2023-05-01T10:17:19.596Z,22.93
2023-05-01T10:19:47.669Z,22.50
2023-05-01T10:22:15.510Z,22.47
2023-05-01T10:24:46.042Z,24.02
2023-05-01T10:27:13.955Z,24.04
2023-05-01T10:29:41.759Z,23.44
2023-05-01T10:32:09.691Z,24.28
2023-05-01T10:34:38.591Z,23.96
2023-05-01T10:37:07.791Z,23.26
2023-05-01T10:39:36.113Z,22.78
2023-05-01T10:42:05.865Z,22.94
2023-05-01T10:44:34.741Z,23.72
2023-05-01T10:47:17.402Z,22.97
2023-05-01T10:50:04.291Z,24.55
2023-05-01T10:52:32.033Z,24.91
2023-05-01T10:55:14.562Z,24.38
2023-05-01T10:57:44.263Z,24.60
2023-05-01T11:00:12.110Z,25.29
2023-05-01T11:02:40.225Z,26.54
2023-05-01T11:05:08.194Z,24.52
2023-05-01T11:07:36.140Z,24.00
2023-05-01T11:10:03.800Z,23.78
2023-05-01T11:12:52.542Z,22.56
2023-05-01T11:15:31.484Z,22.68
2023-05-01T11:17:59.504Z,24.88
2023-05-01T11:20:45.752Z,25.09
2023-05-01T11:23:14.245Z,24.94
2023-05-01T11:25:42.009Z,25.30
2023-05-01T11:28:09.765Z,24.26
2023-05-01T11:30:38.901Z,24.92
2023-05-01T11:33:09.126Z,24.91
2023-05-01T11:35:37.982Z,24.78
2023-05-01T11:38:05.621Z,25.64
2023-05-01T11:40:34.264Z,27.09
2023-05-01T11:43:02.368Z,29.32
2023-05-01T11:45:30.166Z,27.61
2023-05-01T11:48:02.008Z,27.28
2023-05-01T11:50:35.565Z,26.43
2023-05-01T11:53:03.399Z,27.40
2023-05-01T11:55:34.299Z,29.44
2023-05-01T11:58:02.090Z,29.79
2023-05-01T12:00:30.131Z,32.00
2023-05-01T12:03:02.714Z,32.94
2023-05-01T12:05:31.181Z,27.74
2023-05-01T12:08:12.268Z,28.05
2023-05-01T12:10:40.543Z,26.78
2023-05-01T12:13:08.640Z,26.08
2023-05-01T12:15:37.653Z,26.26
2023-05-01T12:18:06.940Z,28.59
2023-05-01T12:20:38.448Z,28.66
2023-05-01T12:23:06.806Z,27.34
2023-05-01T12:25:35.039Z,28.89
2023-05-01T12:28:03.299Z,28.73
2023-05-01T12:30:30.939Z,29.65
2023-05-01T12:32:58.977Z,28.56
2023-05-01T12:35:33.941Z,29.01
2023-05-01T12:38:01.659Z,28.05
2023-05-01T12:40:29.302Z,29.55
2023-05-01T12:42:57.899Z,29.22
2023-05-01T12:45:25.786Z,30.64
2023-05-01T12:47:53.396Z,30.10
2023-05-01T12:50:21.885Z,28.75
2023-05-01T12:52:50.978Z,30.96
2023-05-01T12:55:18.819Z,30.41
2023-05-01T12:57:53.478Z,28.24
2023-05-01T13:00:21.762Z,28.49
2023-05-01T13:02:49.567Z,29.02
2023-05-01T13:05:17.288Z,30.33
2023-05-01T13:07:49.093Z,27.50
2023-05-01T13:10:19.111Z,28.19
2023-05-01T13:12:47.362Z,30.10
2023-05-01T13:15:21.129Z,29.38
2023-05-01T13:17:48.998Z,28.22
2023-05-01T13:20:17.160Z,29.35
2023-05-01T13:22:44.830Z,29.87
2023-05-01T13:25:17.507Z,28.46
2023-05-01T13:27:49.775Z,28.56
2023-05-01T13:30:17.691Z,30.40
2023-05-01T13:32:45.348Z,30.95
2023-05-01T13:35:13.121Z,30.41
2023-05-01T13:37:40.960Z,28.69
2023-05-01T13:40:09.328Z,33.18
2023-05-01T13:42:36.916Z,32.96
2023-05-01T13:45:06.522Z,32.11
2023-05-01T13:47:34.205Z,30.49
2023-05-01T13:50:02.156Z,31.75
2023-05-01T13:52:30.015Z,30.50
2023-05-01T13:54:58.325Z,34.00
2023-05-01T13:57:26.258Z,36.18
2023-05-01T13:59:53.886Z,37.57
2023-05-01T14:02:25.502Z,32.41
2023-05-01T14:04:53.157Z,31.73
2023-05-01T14:07:21.247Z,30.50
2023-05-01T14:09:51.129Z,30.91
2023-05-01T14:12:18.824Z,31.60
2023-05-01T14:14:48.344Z,30.52
2023-05-01T14:17:16.335Z,31.82
2023-05-01T14:19:45.494Z,33.00
2023-05-01T14:22:13.210Z,33.67
2023-05-01T14:24:41.409Z,32.64
2023-05-01T14:27:09.546Z,31.92
2023-05-01T14:29:37.369Z,30.31
2023-05-01T14:32:05.330Z,33.06
2023-05-01T14:34:33.479Z,32.55
2023-05-01T14:37:02.520Z,32.29
2023-05-01T14:39:30.682Z,32.57
2023-05-01T14:41:59.316Z,32.68
2023-05-01T14:44:27.489Z,30.83
2023-05-01T14:46:55.268Z,29.76
2023-05-01T14:49:24.416Z,29.77
2023-05-01T14:51:52.592Z,28.62
2023-05-01T14:54:21.637Z,28.91
2023-05-01T14:56:49.563Z,30.79
2023-05-01T14:59:17.475Z,29.51
2023-05-01T15:01:45.086Z,30.29
2023-05-01T15:04:13.073Z,30.30
2023-05-01T15:06:40.849Z,30.00
2023-05-01T15:09:08.442Z,29.80
2023-05-01T15:11:37.428Z,30.36
2023-05-01T15:14:05.880Z,29.49
2023-05-01T15:16:33.710Z,29.92
2023-05-01T15:19:01.439Z,30.54
2023-05-01T15:21:29.065Z,30.58
2023-05-01T15:23:56.650Z,29.77
2023-05-01T15:26:24.203Z,30.22
2023-05-01T15:28:53.251Z,29.38
2023-05-01T15:31:20.966Z,28.66
2023-05-01T15:33:48.563Z,28.80
2023-05-01T15:36:16.686Z,29.74
2023-05-01T15:38:44.297Z,29.10
2023-05-01T15:41:11.918Z,30.06
2023-05-01T15:43:39.566Z,29.23
2023-05-01T15:46:08.663Z,28.77
2023-05-01T15:48:36.370Z,27.75
2023-05-01T15:51:04.488Z,28.69
2023-05-01T15:53:32.184Z,28.28
2023-05-01T15:55:59.804Z,28.57
2023-05-01T15:58:27.545Z,28.97
2023-05-01T16:00:55.222Z,29.22
2023-05-01T16:03:24.457Z,27.68
2023-05-01T16:05:52.457Z,27.78
2023-05-01T16:08:20.079Z,27.67
2023-05-01T16:10:47.739Z,27.36
2023-05-01T16:13:15.404Z,27.62
2023-05-01T16:15:42.943Z,26.73
2023-05-01T16:18:11.079Z,27.24
2023-05-01T16:20:42.844Z,27.23
2023-05-01T16:23:10.489Z,27.21
2023-05-01T16:25:38.085Z,26.18
2023-05-01T16:28:06.282Z,27.92
2023-05-01T16:30:34.002Z,27.30
2023-05-01T16:33:02.441Z,27.99
2023-05-01T16:35:30.163Z,28.41
2023-05-01T16:38:00.083Z,27.13
2023-05-01T16:40:27.719Z,28.18
2023-05-01T16:42:56.157Z,28.81
2023-05-01T16:45:23.919Z,27.09
2023-05-01T16:47:51.714Z,29.42
2023-05-01T16:50:19.544Z,29.49
2023-05-01T16:52:47.187Z,27.40
2023-05-01T16:58:08.002Z,34.96
2023-05-01T17:00:35.834Z,36.57
2023-05-01T17:03:03.602Z,37.09
2023-05-01T17:05:31.393Z,37.05
2023-05-01T17:07:59.149Z,36.53
2023-05-01T17:10:26.910Z,36.25
2023-05-01T17:12:54.593Z,36.16
2023-05-01T17:15:23.942Z,35.79
2023-05-01T17:17:51.596Z,35.42
2023-05-01T17:20:19.392Z,35.06
2023-05-01T17:22:47.034Z,34.83
2023-05-01T17:25:15.068Z,34.12
2023-05-01T17:27:42.817Z,33.95
2023-05-01T17:30:10.852Z,33.75
2023-05-01T17:32:39.915Z,33.38
2023-05-01T17:35:08.163Z,32.99
2023-05-01T17:37:39.632Z,32.57
2023-05-01T17:40:08.844Z,32.69
2023-05-01T17:42:37.238Z,32.57
2023-05-01T17:45:07.282Z,32.64
2023-05-01T17:47:35.015Z,32.30
2023-05-01T17:50:05.463Z,32.45
2023-05-01T17:52:33.111Z,32.38
2023-05-01T17:55:00.706Z,32.48
2023-05-01T17:57:28.350Z,32.20
2023-05-01T17:59:56.762Z,32.12
2023-05-01T18:02:25.177Z,31.80
2023-05-01T18:04:53.854Z,31.57
2023-05-01T18:07:23.060Z,31.48
2023-05-01T18:09:50.733Z,31.26
2023-05-01T18:12:19.080Z,30.99
2023-05-01T18:14:46.637Z,30.78
2023-05-01T18:17:14.381Z,30.66
2023-05-01T18:19:41.962Z,30.43
2023-05-01T18:22:09.607Z,30.25
2023-05-01T18:24:38.647Z,30.09
2023-05-01T18:27:06.306Z,29.84
2023-05-01T18:29:34.004Z,29.72
2023-05-01T18:32:01.778Z,29.57
2023-05-01T18:34:29.525Z,29.38
2023-05-01T18:36:57.247Z,29.33
2023-05-01T18:39:24.924Z,29.21
2023-05-01T18:41:54.938Z,29.12
2023-05-01T18:44:23.090Z,28.95
2023-05-01T18:46:50.868Z,28.75
2023-05-01T18:49:23.322Z,28.67
2023-05-01T18:51:51.024Z,28.57
2023-05-01T18:54:18.904Z,28.42
2023-05-01T18:56:46.614Z,28.01
2023-05-01T18:59:16.838Z,28.07
2023-05-01T19:01:44.551Z,27.98
2023-05-01T19:04:12.292Z,27.95
2023-05-01T19:06:40.955Z,27.83
2023-05-01T19:09:08.709Z,27.71
2023-05-01T19:11:36.402Z,27.70
2023-05-01T19:14:04.057Z,27.64
2023-05-01T19:16:33.116Z,27.45
2023-05-01T19:19:00.804Z,27.55
2023-05-01T19:21:28.951Z,27.38
2023-05-01T19:23:56.580Z,27.38
2023-05-01T19:26:24.267Z,27.37
2023-05-01T19:28:51.961Z,27.38
2023-05-01T19:31:19.976Z,27.46
2023-05-01T19:33:49.155Z,27.49
2023-05-01T19:36:17.010Z,27.49
2023-05-01T19:38:45.456Z,27.42
2023-05-01T19:41:13.473Z,27.44
2023-05-01T19:43:41.453Z,27.29
2023-05-01T19:46:09.580Z,27.42
2023-05-01T19:48:37.578Z,27.46
2023-05-01T19:51:06.712Z,27.49
2023-05-01T19:53:34.650Z,27.45
2023-05-01T19:56:02.310Z,27.51
2023-05-01T19:58:30.017Z,27.46
2023-05-01T20:00:59.808Z,27.48
2023-05-01T20:03:27.617Z,27.51
2023-05-01T20:05:55.607Z,27.41
2023-05-01T20:08:24.664Z,27.52
2023-05-01T20:10:52.381Z,27.48
2023-05-01T20:13:19.970Z,27.40
2023-05-01T20:15:47.606Z,27.35
2023-05-01T20:18:16.688Z,27.32
2023-05-01T20:20:44.439Z,27.43
2023-05-01T20:23:12.756Z,27.50
2023-05-01T20:25:42.214Z,27.42
2023-05-01T20:28:10.180Z,27.45
2023-05-01T20:30:38.373Z,27.52
2023-05-01T20:33:06.274Z,27.51
2023-05-01T20:35:34.888Z,27.47
2023-05-01T20:38:02.978Z,26.95
2023-05-01T20:40:31.861Z,26.90
2023-05-01T20:43:01.201Z,27.40
2023-05-01T20:45:28.984Z,27.66
2023-05-01T20:47:57.490Z,27.46
2023-05-01T20:50:25.789Z,27.49
2023-05-01T20:52:54.835Z,27.48
2023-05-01T20:55:22.612Z,27.64
2023-05-01T20:57:50.296Z,27.69
2023-05-01T21:00:19.374Z,27.77
2023-05-01T21:02:47.224Z,27.66
2023-05-01T21:05:16.260Z,27.56
2023-05-01T21:07:43.959Z,27.54
2023-05-01T21:10:14.156Z,27.47
2023-05-01T21:12:42.577Z,27.37
2023-05-01T21:15:11.032Z,27.11
2023-05-01T21:17:40.669Z,26.87
2023-05-01T21:20:10.658Z,26.83
2023-05-01T21:22:38.440Z,26.90
2023-05-01T21:25:07.173Z,26.95
2023-05-01T21:27:34.859Z,26.58
2023-05-01T21:30:02.739Z,26.95
2023-05-01T21:32:32.315Z,26.77
2023-05-01T21:35:01.442Z,27.02
2023-05-01T21:37:29.360Z,27.12
2023-05-01T21:39:58.480Z,27.27
2023-05-01T21:42:27.978Z,27.70
2023-05-01T21:44:55.715Z,27.41
2023-05-01T21:47:23.430Z,27.47
2023-05-01T21:49:51.206Z,27.26
2023-05-01T21:52:20.281Z,27.39
2023-05-01T21:54:47.982Z,27.48
2023-05-01T21:57:15.660Z,27.53
2023-05-01T21:59:45.040Z,27.18
2023-05-01T22:02:12.914Z,26.94
2023-05-01T22:04:40.694Z,26.60
2023-05-01T22:07:08.414Z,26.86
2023-05-01T22:09:38.002Z,26.93
2023-05-01T22:12:05.728Z,27.01
2023-05-01T22:14:43.976Z,26.83
2023-05-01T22:17:14.703Z,27.45
2023-05-01T22:19:42.618Z,26.97
2023-05-01T22:22:10.288Z,27.29
2023-05-01T22:24:39.759Z,27.06
2023-05-01T22:27:07.453Z,27.16
2023-05-01T22:29:35.146Z,27.41
2023-05-01T22:32:05.623Z,27.66
2023-05-01T22:34:33.230Z,27.43
2023-05-01T22:37:00.834Z,27.37
2023-05-01T22:39:28.519Z,26.95
2023-05-01T22:41:58.059Z,27.35
2023-05-01T22:44:25.728Z,27.29
2023-05-01T22:46:53.352Z,26.72
2023-05-01T22:49:23.326Z,26.79
2023-05-01T22:51:51.015Z,27.61
2023-05-01T22:54:18.585Z,26.81
2023-05-01T22:56:46.250Z,27.03
2023-05-01T22:59:15.268Z,26.16
2023-05-01T23:01:42.953Z,26.24
2023-05-01T23:04:10.797Z,26.67
2023-05-01T23:06:39.228Z,25.69
2023-05-01T23:09:06.944Z,25.56
2023-05-01T23:11:34.853Z,25.36
2023-05-01T23:14:02.472Z,25.24
2023-05-01T23:16:32.683Z,26.44
2023-05-01T23:19:00.326Z,26.06
2023-05-01T23:21:27.990Z,26.23
2023-05-01T23:23:55.622Z,27.15
2023-05-01T23:26:24.961Z,26.19
2023-05-01T23:28:52.816Z,26.57
2023-05-01T23:31:22.555Z,26.30
2023-05-01T23:33:51.725Z,26.69
2023-05-01T23:36:19.369Z,26.79
2023-05-01T23:38:46.986Z,25.71
2023-05-01T23:41:14.650Z,25.12
2023-05-01T23:43:42.404Z,26.06
2023-05-01T23:46:10.033Z,26.37
2023-05-01T23:48:37.655Z,25.48
2023-05-01T23:51:06.759Z,26.45
2023-05-01T23:53:34.381Z,24.86
2023-05-01T23:56:02.140Z,25.60
2023-05-01T23:58:29.757Z,25.44
